createdAt,value
2023-04-25T00:01:54.896Z,6.04
2023-04-25T00:04:30.865Z,6.01
2023-04-25T00:07:04.391Z,6.05
2023-04-25T00:09:37.387Z,6.11
2023-04-25T00:12:10.583Z,5.96
2023-04-25T00:14:43.689Z,6.09
2023-04-25T00:17:17.274Z,6.06
2023-04-25T00:19:51.496Z,5.95
2023-04-25T00:22:24.478Z,6.06
2023-04-25T00:24:58.195Z,6.07
2023-04-25T00:27:31.006Z,6.11
2023-04-25T00:30:04.407Z,6.21
2023-04-25T00:32:37.452Z,6.16
2023-04-25T00:35:12.571Z,6.14
2023-04-25T00:37:45.843Z,6.20
2023-04-25T00:40:18.820Z,6.13
2023-04-25T00:42:54.353Z,6.14
2023-04-25T00:45:30.152Z,6.20
2023-04-25T00:48:03.734Z,6.17
2023-04-25T00:50:38.979Z,6.11
2023-04-25T00:53:12.238Z,6.08
2023-04-25T00:55:45.245Z,6.18
2023-04-25T00:58:19.736Z,6.11
2023-04-25T01:00:54.111Z,6.18
2023-04-25T01:03:29.755Z,6.19
2023-04-25T01:06:04.949Z,6.24
2023-04-25T01:08:39.254Z,6.07
2023-04-25T01:11:12.120Z,6.07
2023-04-25T01:13:45.729Z,6.19
2023-04-25T01:16:18.754Z,6.00
2023-04-25T01:18:52.764Z,6.08
2023-04-25T01:21:28.870Z,6.14
2023-04-25T01:24:01.949Z,6.25
2023-04-25T01:26:36.060Z,6.18
2023-04-25T01:29:09.747Z,6.26
2023-04-25T01:31:43.523Z,6.27
2023-04-25T01:34:17.071Z,6.26
2023-04-25T01:36:52.570Z,6.07
2023-04-25T01:39:25.856Z,6.28
2023-04-25T01:42:01.146Z,6.23
2023-04-25T01:44:34.260Z,6.14
2023-04-25T01:47:07.173Z,6.45
2023-04-25T01:49:42.430Z,6.24
2023-04-25T01:52:16.741Z,6.44
2023-04-25T01:54:50.889Z,6.38
2023-04-25T01:57:24.390Z,6.41
2023-04-25T02:00:01.151Z,6.43
2023-04-25T02:02:46.113Z,6.36
2023-04-25T02:05:38.850Z,6.39
2023-04-25T02:08:15.362Z,6.35
2023-04-25T02:10:48.321Z,6.35
2023-04-25T02:13:24.481Z,6.37
2023-04-25T02:16:31.574Z,6.30
2023-04-25T02:19:06.821Z,6.19
2023-04-25T02:21:39.918Z,6.34
2023-04-25T02:24:14.122Z,6.38
2023-04-25T02:26:47.687Z,6.37
2023-04-25T02:29:20.583Z,6.35
2023-04-25T02:31:53.477Z,6.37
2023-04-25T02:34:26.449Z,6.40
2023-04-25T02:36:59.414Z,6.38
2023-04-25T02:39:33.635Z,6.34
2023-04-25T02:42:06.586Z,6.31
2023-04-25T02:44:39.434Z,6.46
2023-04-25T02:47:12.599Z,6.51
2023-04-25T02:49:46.059Z,6.40
2023-04-25T02:52:19.159Z,6.33
2023-04-25T02:55:00.377Z,6.36
2023-04-25T02:57:35.436Z,6.47
2023-04-25T03:00:09.596Z,6.47
2023-04-25T03:02:42.543Z,6.30
2023-04-25T03:05:15.632Z,6.40
2023-04-25T03:07:48.622Z,6.42
2023-04-25T03:10:24.222Z,6.35
2023-04-25T03:12:57.197Z,6.40
2023-04-25T03:15:30.123Z,6.44
2023-04-25T03:18:03.224Z,6.20
2023-04-25T03:20:36.549Z,6.29
2023-04-25T03:23:10.641Z,6.20
2023-04-25T03:25:47.413Z,6.33
2023-04-25T03:28:20.872Z,6.34
2023-04-25T03:30:55.044Z,6.31
2023-04-25T03:33:27.986Z,6.30
2023-04-25T03:36:00.886Z,6.19
2023-04-25T03:38:35.368Z,6.31
2023-04-25T03:41:09.901Z,6.30
2023-04-25T03:43:47.398Z,6.32
2023-04-25T03:46:21.104Z,6.24
2023-04-25T03:48:54.795Z,6.21
2023-04-25T03:51:32.399Z,6.19
2023-04-25T03:54:05.650Z,6.30
2023-04-25T03:56:58.925Z,6.05
2023-04-25T03:59:34.600Z,6.23
2023-04-25T04:02:07.916Z,6.00
2023-04-25T04:04:42.491Z,6.06
2023-04-25T04:07:15.840Z,6.02
2023-04-25T04:09:52.106Z,6.05
2023-04-25T04:12:32.617Z,6.06
2023-04-25T04:15:06.952Z,6.04
2023-04-25T04:17:40.371Z,5.89
2023-04-25T04:20:14.525Z,5.93
2023-04-25T04:22:48.596Z,5.80
2023-04-25T04:25:22.473Z,5.82
2023-04-25T04:28:14.028Z,5.83
2023-04-25T04:30:54.775Z,5.75
2023-04-25T04:33:27.825Z,5.80
2023-04-25T04:36:05.662Z,5.74
2023-04-25T04:38:41.364Z,5.73
2023-04-25T04:41:17.458Z,5.69
2023-04-25T04:44:12.192Z,5.52
2023-04-25T04:47:07.380Z,5.73
2023-04-25T04:50:11.210Z,5.64
2023-04-25T04:53:06.923Z,5.66
2023-04-25T04:55:49.084Z,5.77
2023-04-25T04:58:42.570Z,5.69
2023-04-25T05:01:37.209Z,5.72
2023-04-25T05:04:24.410Z,5.60
2023-04-25T05:07:12.093Z,5.80
2023-04-25T05:10:04.416Z,5.83
2023-04-25T05:12:49.587Z,5.78
2023-04-25T05:15:31.272Z,5.81
2023-04-25T05:18:37.828Z,5.81
2023-04-25T05:21:28.224Z,5.80
2023-04-25T05:24:27.552Z,5.84
2023-04-25T05:27:18.578Z,5.94
2023-04-25T05:30:11.193Z,5.98
2023-04-25T05:33:13.048Z,5.92
2023-04-25T05:35:48.725Z,5.90
2023-04-25T05:38:21.912Z,5.86
2023-04-25T05:41:20.932Z,5.87
2023-04-25T05:44:14.051Z,5.70
2023-04-25T05:47:05.795Z,5.90
2023-04-25T05:49:58.870Z,5.80
2023-04-25T05:52:57.897Z,5.79
2023-04-25T05:55:35.308Z,5.86
2023-04-25T05:58:18.903Z,6.12
2023-04-25T06:01:04.611Z,6.25
2023-04-25T06:03:39.493Z,6.39
2023-04-25T06:06:13.390Z,6.45
2023-04-25T06:08:48.066Z,6.44
2023-04-25T06:11:21.152Z,6.47
2023-04-25T06:13:54.098Z,6.49
2023-04-25T06:16:27.558Z,6.68
2023-04-25T06:19:00.579Z,6.62
2023-04-25T06:21:33.763Z,6.56
2023-04-25T06:24:08.280Z,6.58
2023-04-25T06:26:41.321Z,6.87
2023-04-25T06:29:14.382Z,6.67
2023-04-25T06:31:47.638Z,6.79
2023-04-25T06:34:21.510Z,6.84
2023-04-25T06:36:54.713Z,6.76
2023-04-25T06:39:29.559Z,6.90
2023-04-25T06:42:02.467Z,6.86
2023-04-25T06:44:53.927Z,7.08
2023-04-25T06:47:29.128Z,7.22
2023-04-25T06:50:02.168Z,7.13
2023-04-25T06:52:36.274Z,7.34
2023-04-25T06:55:11.620Z,7.20
2023-04-25T06:58:13.627Z,7.11
2023-04-25T07:01:09.556Z,7.53
2023-04-25T07:03:44.015Z,7.44
2023-04-25T07:06:22.253Z,7.34
2023-04-25T07:08:57.090Z,7.45
2023-04-25T07:11:32.023Z,7.42
2023-04-25T07:14:05.533Z,7.37
2023-04-25T07:16:38.683Z,7.44
2023-04-25T07:19:11.980Z,7.55
2023-04-25T07:21:44.997Z,7.56
2023-04-25T07:24:18.649Z,7.56
2023-04-25T07:26:54.766Z,7.83
2023-04-25T07:29:27.780Z,8.09
2023-04-25T07:32:01.156Z,7.86
2023-04-25T07:34:38.067Z,7.76
2023-04-25T07:37:11.322Z,8.00
2023-04-25T07:39:56.029Z,8.10
2023-04-25T07:42:30.638Z,8.41
2023-04-25T07:45:04.623Z,8.49
2023-04-25T07:47:37.924Z,8.26
2023-04-25T07:50:11.892Z,8.68
2023-04-25T07:52:45.420Z,8.81
2023-04-25T07:55:32.320Z,8.49
2023-04-25T07:58:16.257Z,8.93
2023-04-25T08:00:51.834Z,9.20
2023-04-25T08:03:43.401Z,9.27
2023-04-25T08:06:34.571Z,9.05
2023-04-25T08:09:14.595Z,9.71
2023-04-25T08:11:48.911Z,9.02
2023-04-25T08:14:26.057Z,9.64
2023-04-25T08:17:00.618Z,9.89
2023-04-25T08:19:34.598Z,9.21
2023-04-25T08:22:08.549Z,9.19
2023-04-25T08:24:51.908Z,9.51
2023-04-25T08:27:25.442Z,9.48
2023-04-25T08:29:59.963Z,9.41
2023-04-25T08:32:33.021Z,8.91
2023-04-25T08:35:31.791Z,8.91
2023-04-25T08:38:05.401Z,9.17
2023-04-25T08:40:42.427Z,9.17
2023-04-25T08:43:22.116Z,8.70
2023-04-25T08:46:00.686Z,8.67
2023-04-25T08:48:47.600Z,9.18
2023-04-25T08:51:25.814Z,9.97
2023-04-25T08:54:34.592Z,10.14
2023-04-25T08:57:04.774Z,9.83
2023-04-25T08:59:39.879Z,10.00
2023-04-25T09:02:17.622Z,9.89
2023-04-25T09:04:56.365Z,10.35
2023-04-25T09:07:29.791Z,10.15
2023-04-25T09:10:04.337Z,10.28
2023-04-25T09:12:41.667Z,10.53
2023-04-25T09:15:20.640Z,10.55
2023-04-25T09:17:59.078Z,10.67
2023-04-25T09:20:59.656Z,10.71
2023-04-25T09:23:42.196Z,9.76
2023-04-25T09:26:16.619Z,10.80
2023-04-25T09:28:50.732Z,10.54
2023-04-25T09:31:27.482Z,11.48
2023-04-25T09:34:06.334Z,11.09
2023-04-25T09:36:48.628Z,11.97
2023-04-25T09:39:34.894Z,11.11
2023-04-25T09:42:18.596Z,11.93
2023-04-25T09:44:54.458Z,12.68
2023-04-25T09:47:29.339Z,12.85
2023-04-25T09:50:04.209Z,11.95
2023-04-25T09:52:37.262Z,11.35
2023-04-25T09:55:20.583Z,10.58
2023-04-25T09:57:57.335Z,10.09
2023-04-25T10:00:31.247Z,9.89
2023-04-25T10:03:09.528Z,9.20
2023-04-25T10:06:05.365Z,8.89
2023-04-25T10:08:39.450Z,8.82
2023-04-25T10:11:15.515Z,9.27
2023-04-25T10:13:49.810Z,8.92
2023-04-25T10:16:23.836Z,9.05
2023-04-25T10:18:57.637Z,8.98
2023-04-25T10:21:35.824Z,9.40
2023-04-25T10:24:09.441Z,8.64
2023-04-25T10:26:42.673Z,8.28
2023-04-25T10:29:25.173Z,8.10
2023-04-25T10:31:59.295Z,8.33
2023-04-25T10:34:42.818Z,8.53
2023-04-25T10:37:17.046Z,8.91
2023-04-25T10:39:49.948Z,8.72
2023-04-25T10:42:22.973Z,9.16
2023-04-25T10:45:04.785Z,9.27
2023-04-25T10:47:38.941Z,9.40
2023-04-25T10:50:12.621Z,9.80
2023-04-25T10:52:46.971Z,10.00
2023-04-25T10:55:19.988Z,9.59
2023-04-25T10:57:53.576Z,10.29
2023-04-25T11:00:38.332Z,10.31
2023-04-25T11:03:25.161Z,10.80
2023-04-25T11:05:58.655Z,10.57
2023-04-25T11:08:45.712Z,11.00
2023-04-25T11:11:19.671Z,10.73
2023-04-25T11:13:52.703Z,10.81
2023-04-25T11:16:28.236Z,10.38
2023-04-25T11:19:01.689Z,10.87
2023-04-25T11:21:34.727Z,11.12
2023-04-25T11:24:09.278Z,11.92
2023-04-25T11:26:43.914Z,12.13
2023-04-25T11:29:16.821Z,12.61
2023-04-25T11:31:49.897Z,12.22
2023-04-25T11:34:22.961Z,12.13
2023-04-25T11:36:56.168Z,11.89
2023-04-25T11:39:31.021Z,11.95
2023-04-25T11:42:07.515Z,11.88
2023-04-25T11:44:43.955Z,12.45
2023-04-25T11:47:16.925Z,11.52
2023-04-25T11:49:51.031Z,11.43
2023-04-25T11:52:23.858Z,11.89
2023-04-25T11:54:58.372Z,10.78
2023-04-25T11:57:33.518Z,11.25
2023-04-25T12:00:18.612Z,10.24
2023-04-25T12:02:54.772Z,10.99
2023-04-25T12:05:33.296Z,9.58
2023-04-25T12:08:16.896Z,10.37
2023-04-25T12:10:51.311Z,10.24
2023-04-25T12:13:25.735Z,9.94
2023-04-25T12:15:59.009Z,10.17
2023-04-25T12:18:32.223Z,10.72
2023-04-25T12:21:06.763Z,10.25
2023-04-25T12:23:40.972Z,10.33
2023-04-25T12:26:15.280Z,11.15
2023-04-25T12:28:50.042Z,11.53
2023-04-25T12:31:24.360Z,12.04
2023-04-25T12:33:59.296Z,12.55
2023-04-25T12:36:36.587Z,12.21
2023-04-25T12:39:11.526Z,11.80
2023-04-25T12:41:48.237Z,12.65
2023-04-25T12:44:22.258Z,12.63
2023-04-25T12:46:58.298Z,13.07
2023-04-25T12:49:34.264Z,11.46
2023-04-25T12:52:07.877Z,10.97
2023-04-25T12:54:41.690Z,10.05
2023-04-25T12:57:17.276Z,9.02
2023-04-25T12:59:51.519Z,8.69
2023-04-25T13:02:26.098Z,8.53
2023-04-25T13:05:00.395Z,8.34
2023-04-25T13:07:36.145Z,8.29
2023-04-25T13:10:12.797Z,8.77
2023-04-25T13:12:48.198Z,9.57
2023-04-25T13:15:23.023Z,9.66
2023-04-25T13:17:57.627Z,10.82
2023-04-25T13:20:32.399Z,10.96
2023-04-25T13:23:06.621Z,11.91
2023-04-25T13:25:40.956Z,12.30
2023-04-25T13:28:17.846Z,11.91
2023-04-25T13:30:53.938Z,11.78
2023-04-25T13:33:28.278Z,12.46
2023-04-25T13:36:03.553Z,11.98
2023-04-25T13:38:36.665Z,13.28
2023-04-25T13:41:11.881Z,13.67
2023-04-25T13:43:48.249Z,13.23
2023-04-25T13:46:40.652Z,13.43
2023-04-25T13:49:15.476Z,13.05
2023-04-25T13:51:48.659Z,15.66
2023-04-25T13:54:21.859Z,13.54
2023-04-25T13:56:59.695Z,12.95
2023-04-25T13:59:34.672Z,12.52
2023-04-25T14:02:07.527Z,12.28
2023-04-25T14:04:42.092Z,11.86
2023-04-25T14:07:17.408Z,10.32
2023-04-25T14:09:50.574Z,9.82
2023-04-25T14:12:23.397Z,8.44
2023-04-25T14:14:58.079Z,7.61
2023-04-25T14:17:32.904Z,7.78
2023-04-25T14:20:08.754Z,7.97
2023-04-25T14:22:44.504Z,9.67
2023-04-25T14:25:17.850Z,9.53
2023-04-25T14:27:51.624Z,8.65
2023-04-25T14:30:26.540Z,8.54
2023-04-25T14:33:00.729Z,8.50
2023-04-25T14:35:33.685Z,9.82
2023-04-25T14:38:06.769Z,10.47
2023-04-25T14:40:40.277Z,10.23
2023-04-25T14:43:14.500Z,9.92
2023-04-25T14:45:48.843Z,11.19
2023-04-25T14:48:22.198Z,13.48
2023-04-25T14:50:55.088Z,13.02
2023-04-25T14:53:28.094Z,11.98
2023-04-25T14:56:01.335Z,10.77
2023-04-25T14:58:34.725Z,10.05
2023-04-25T15:01:09.823Z,9.81
2023-04-25T15:03:43.244Z,9.70
2023-04-25T15:06:17.235Z,9.84
2023-04-25T15:08:50.037Z,10.42
2023-04-25T15:11:22.962Z,10.12
2023-04-25T15:13:56.003Z,9.84
2023-04-25T15:16:31.861Z,9.55
2023-04-25T15:19:05.023Z,9.75
2023-04-25T15:21:38.025Z,9.54
2023-04-25T15:24:10.915Z,9.83
2023-04-25T15:26:44.026Z,9.97
2023-04-25T15:29:17.430Z,10.61
2023-04-25T15:31:52.032Z,10.93
2023-04-25T15:34:24.955Z,11.23
2023-04-25T15:36:58.533Z,11.12
2023-04-25T15:39:32.095Z,11.16
2023-04-25T15:42:05.022Z,11.58
2023-04-25T15:44:37.851Z,11.71
2023-04-25T15:47:12.033Z,12.26
2023-04-25T15:49:44.848Z,13.83
2023-04-25T15:52:21.761Z,13.35
2023-04-25T15:54:54.668Z,16.00
2023-04-25T15:57:27.502Z,15.32
2023-04-25T16:00:00.626Z,13.68
2023-04-25T16:02:35.055Z,13.05
2023-04-25T16:05:08.977Z,11.69
2023-04-25T16:07:44.128Z,11.64
2023-04-25T16:10:19.942Z,12.50
2023-04-25T16:12:52.955Z,11.92
2023-04-25T16:15:25.880Z,11.19
2023-04-25T16:18:00.106Z,10.68
2023-04-25T16:20:33.163Z,10.92
2023-04-25T16:23:06.162Z,12.71
2023-04-25T16:25:39.148Z,12.83
2023-04-25T16:28:12.371Z,11.88
2023-04-25T16:30:45.283Z,13.04
2023-04-25T16:33:19.553Z,13.94
2023-04-25T16:35:53.316Z,12.73
2023-04-25T16:38:26.722Z,12.22
2023-04-25T16:40:59.667Z,12.41
2023-04-25T16:43:32.700Z,11.57
2023-04-25T16:46:05.917Z,15.75
2023-04-25T16:48:40.045Z,11.84
2023-04-25T16:51:13.001Z,12.71
2023-04-25T16:53:46.582Z,11.47
2023-04-25T16:56:19.396Z,14.78
2023-04-25T16:58:53.252Z,16.03
2023-04-25T17:01:26.296Z,20.28
2023-04-25T17:04:01.211Z,18.73
2023-04-25T17:06:34.959Z,21.65
2023-04-25T17:09:07.996Z,19.39
2023-04-25T17:11:41.083Z,19.25
2023-04-25T17:14:14.123Z,17.79
2023-04-25T17:16:47.376Z,13.18
2023-04-25T17:19:21.927Z,12.78
2023-04-25T17:21:54.943Z,13.37
2023-04-25T17:24:27.794Z,11.41
2023-04-25T17:27:01.672Z,10.91
2023-04-25T17:29:35.266Z,10.26
2023-04-25T17:32:08.611Z,10.04
2023-04-25T17:34:43.815Z,10.26
2023-04-25T17:37:18.084Z,10.51
2023-04-25T17:39:50.983Z,10.54
2023-04-25T17:42:24.651Z,10.87
2023-04-25T17:44:58.144Z,13.63
2023-04-25T17:47:31.912Z,11.61
2023-04-25T17:50:07.428Z,11.27
2023-04-25T17:52:40.330Z,10.60
2023-04-25T17:55:13.130Z,10.58
2023-04-25T17:57:45.976Z,9.97
2023-04-25T18:00:19.562Z,10.12
2023-04-25T18:02:52.734Z,9.85
2023-04-25T18:05:27.855Z,9.47
2023-04-25T18:08:02.299Z,10.31
2023-04-25T18:10:35.439Z,9.78
2023-04-25T18:13:09.026Z,10.01
2023-04-25T18:15:41.920Z,9.79
2023-04-25T18:18:20.403Z,9.82
2023-04-25T18:20:54.938Z,9.93
2023-04-25T18:23:28.015Z,9.95
2023-04-25T18:26:01.351Z,9.53
2023-04-25T18:28:35.038Z,8.73
2023-04-25T18:31:09.627Z,8.52
2023-04-25T18:33:42.473Z,8.44
2023-04-25T18:36:16.652Z,8.54
2023-04-25T18:41:51.911Z,8.24
2023-04-25T18:44:20.886Z,8.06
2023-04-25T18:46:53.836Z,7.93
2023-04-25T18:49:27.768Z,7.66
2023-04-25T18:52:03.494Z,7.53
2023-04-25T18:54:36.938Z,7.44
2023-04-25T18:57:11.518Z,7.43
2023-04-25T18:59:45.989Z,7.37
2023-04-25T19:02:19.009Z,7.26
2023-04-25T19:04:51.993Z,7.28
2023-04-25T19:07:28.161Z,7.19
2023-04-25T19:10:01.135Z,7.05
2023-04-25T19:12:34.619Z,6.92
2023-04-25T19:15:09.678Z,6.97
2023-04-25T19:17:42.820Z,7.12
2023-04-25T19:20:16.235Z,7.26
2023-04-25T19:22:51.683Z,7.16
2023-04-25T19:25:24.751Z,7.23
2023-04-25T19:28:00.506Z,7.11
2023-04-25T19:30:33.540Z,6.92
2023-04-25T19:33:06.407Z,6.88
2023-04-25T19:35:39.291Z,6.63
2023-04-25T19:38:14.906Z,6.79
2023-04-25T19:40:48.547Z,6.63
2023-04-25T19:43:21.412Z,6.62
2023-04-25T19:45:54.346Z,6.45
2023-04-25T19:48:27.327Z,6.46
2023-04-25T19:51:00.908Z,6.54
2023-04-25T19:53:35.075Z,6.61
2023-04-25T19:56:08.235Z,6.59
2023-04-25T19:58:41.204Z,6.57
2023-04-25T20:01:14.208Z,6.44
2023-04-25T20:03:48.231Z,6.51
2023-04-25T20:06:21.563Z,6.42
2023-04-25T20:08:56.209Z,6.36
2023-04-25T20:11:29.462Z,6.05
2023-04-25T20:14:02.329Z,5.99
2023-04-25T20:16:37.548Z,6.05
2023-04-25T20:19:10.454Z,5.99
2023-04-25T20:21:43.357Z,5.86
2023-04-25T20:24:17.938Z,5.86
2023-04-25T20:26:51.092Z,5.85
2023-04-25T20:29:25.552Z,5.87
2023-04-25T20:31:59.795Z,5.89
2023-04-25T20:34:34.154Z,5.80
2023-04-25T20:37:08.386Z,5.81
2023-04-25T20:39:43.038Z,5.77
2023-04-25T20:42:16.638Z,5.65
2023-04-25T20:44:50.106Z,5.67
2023-04-25T20:47:23.194Z,5.80
2023-04-25T20:49:56.065Z,5.55
2023-04-25T20:52:29.287Z,5.45
2023-04-25T20:55:03.777Z,5.34
2023-04-25T20:57:37.050Z,5.39
2023-04-25T21:00:26.946Z,5.39
2023-04-25T21:03:02.650Z,5.32
2023-04-25T21:05:36.327Z,5.16
2023-04-25T21:08:09.482Z,5.24
2023-04-25T21:10:43.976Z,5.19
2023-04-25T21:13:17.113Z,5.19
2023-04-25T21:15:49.985Z,5.16
2023-04-25T21:18:23.005Z,5.18
2023-04-25T21:20:55.852Z,5.17
2023-04-25T21:23:28.716Z,5.13
2023-04-25T21:26:02.980Z,5.15
2023-04-25T21:28:35.834Z,5.15
2023-04-25T21:31:08.770Z,5.17
2023-04-25T21:33:42.020Z,5.17
2023-04-25T21:36:14.824Z,5.21
2023-04-25T21:38:47.898Z,5.09
2023-04-25T21:41:22.464Z,5.05
2023-04-25T21:43:55.837Z,4.98
2023-04-25T21:46:28.708Z,4.98
2023-04-25T21:49:01.846Z,5.08
2023-04-25T21:51:34.904Z,5.02
2023-04-25T21:54:07.911Z,4.93
2023-04-25T21:56:42.093Z,4.98
2023-04-25T21:59:14.935Z,4.94
2023-04-25T22:01:48.517Z,4.74
2023-04-25T22:04:22.715Z,4.74
2023-04-25T22:06:56.895Z,4.69
2023-04-25T22:09:29.714Z,4.64
2023-04-25T22:12:04.380Z,4.65
2023-04-25T22:14:38.236Z,4.62
2023-04-25T22:17:12.016Z,4.72
2023-04-25T22:19:44.762Z,4.72
2023-04-25T22:22:17.555Z,4.70
2023-04-25T22:24:50.438Z,4.69
2023-04-25T22:27:24.631Z,4.67
2023-04-25T22:29:57.506Z,4.68
2023-04-25T22:32:30.450Z,4.66
2023-04-25T22:35:04.517Z,4.49
2023-04-25T22:37:37.732Z,4.40
2023-04-25T22:40:11.305Z,4.39
2023-04-25T22:42:45.485Z,4.36
2023-04-25T22:45:18.470Z,4.40
2023-04-25T22:47:51.384Z,4.45
2023-04-25T22:50:24.419Z,4.44
2023-04-25T22:52:57.252Z,4.44
2023-04-25T22:55:30.342Z,4.45
2023-04-25T22:58:04.865Z,4.50
2023-04-25T23:00:37.909Z,4.45
2023-04-25T23:03:11.004Z,4.39
2023-04-25T23:05:44.318Z,4.39
2023-04-25T23:08:17.214Z,4.44
2023-04-25T23:10:50.028Z,4.39
2023-04-25T23:13:24.664Z,4.32
2023-04-25T23:15:57.889Z,4.37
2023-04-25T23:18:30.650Z,4.27
2023-04-25T23:21:03.862Z,4.31
2023-04-25T23:23:37.926Z,4.35
2023-04-25T23:26:11.574Z,4.23
2023-04-25T23:28:46.787Z,4.11
2023-04-25T23:31:19.612Z,4.11
2023-04-25T23:33:52.434Z,4.15
2023-04-25T23:36:25.282Z,4.17
2023-04-25T23:38:58.159Z,4.03
2023-04-25T23:41:30.943Z,4.11
2023-04-25T23:44:07.753Z,4.01
2023-04-25T23:46:40.945Z,4.02
2023-04-25T23:49:13.787Z,4.04
2023-04-25T23:51:46.611Z,3.83
2023-04-25T23:54:19.517Z,3.81
2023-04-25T23:56:52.454Z,3.74
2023-04-25T23:59:28.029Z,3.75
